createdAt,value
2017-10-13T00:01:19.273Z,9.05
2017-10-13T00:03:46.938Z,7.10
2017-10-13T00:06:14.558Z,7.20
2017-10-13T00:08:42.210Z,4.40
2017-10-13T00:11:09.827Z,8.75
2017-10-13T00:13:37.451Z,7.22
2017-10-13T00:16:05.107Z,6.37
2017-10-13T00:18:32.725Z,6.03
2017-10-13T00:21:00.423Z,6.30
2017-10-13T00:23:28.817Z,5.87
2017-10-13T00:25:56.439Z,7.75
2017-10-13T00:28:24.842Z,8.88
2017-10-13T00:30:52.457Z,9.38
2017-10-13T00:33:20.105Z,7.95
2017-10-13T00:35:47.729Z,6.60
2017-10-13T00:38:16.166Z,6.43
2017-10-13T00:40:43.806Z,5.00
2017-10-13T00:43:11.427Z,6.85
2017-10-13T00:45:39.098Z,6.93
2017-10-13T00:48:06.740Z,7.05
2017-10-13T00:50:34.358Z,6.22
2017-10-13T00:53:02.006Z,4.15
2017-10-13T00:55:29.622Z,4.07
2017-10-13T00:57:58.052Z,6.22
2017-10-13T01:00:25.847Z,4.93
2017-10-13T01:02:54.344Z,7.28
2017-10-13T01:05:21.989Z,6.15
2017-10-13T01:07:49.606Z,11.43
2017-10-13T01:10:17.301Z,6.28
2017-10-13T01:12:44.918Z,8.57
2017-10-13T01:15:12.531Z,5.55
2017-10-13T01:17:40.930Z,9.00
2017-10-13T01:20:08.545Z,4.90
2017-10-13T01:22:36.964Z,7.18
2017-10-13T01:25:04.581Z,5.93
2017-10-13T01:27:32.206Z,7.10
2017-10-13T01:30:00.616Z,6.97
2017-10-13T01:32:28.233Z,6.78
2017-10-13T01:34:55.897Z,4.18
2017-10-13T01:37:23.514Z,4.30
2017-10-13T01:39:51.894Z,4.35
2017-10-13T01:42:19.538Z,9.13
2017-10-13T01:44:47.216Z,8.13
2017-10-13T01:47:14.884Z,4.50
2017-10-13T01:49:42.510Z,5.10
2017-10-13T01:52:10.131Z,4.35
2017-10-13T01:54:37.787Z,5.05
2017-10-13T01:57:05.408Z,9.05
2017-10-13T01:59:33.062Z,4.22
2017-10-13T02:02:00.684Z,5.85
2017-10-13T02:04:29.062Z,8.63
2017-10-13T02:06:57.471Z,4.68
2017-10-13T02:09:25.101Z,8.57
2017-10-13T02:11:52.849Z,7.15
2017-10-13T02:14:20.462Z,5.18
2017-10-13T02:16:48.862Z,5.60
2017-10-13T02:19:16.503Z,5.20
2017-10-13T02:21:44.124Z,5.80
2017-10-13T02:24:11.785Z,6.43
2017-10-13T02:26:39.695Z,7.05
2017-10-13T02:29:07.323Z,7.03
2017-10-13T02:31:34.972Z,4.93
2017-10-13T02:34:02.626Z,7.65
2017-10-13T02:36:30.287Z,5.82
2017-10-13T02:38:57.922Z,7.82
2017-10-13T02:41:25.987Z,7.32
2017-10-13T02:43:53.628Z,7.35
2017-10-13T02:46:21.253Z,4.20
2017-10-13T02:48:48.910Z,4.75
2017-10-13T02:51:16.532Z,8.98
2017-10-13T02:53:44.137Z,9.43
2017-10-13T02:56:12.549Z,9.07
2017-10-13T02:58:40.170Z,9.70
2017-10-13T03:01:07.832Z,9.55
2017-10-13T03:03:35.459Z,6.82
2017-10-13T03:06:03.173Z,6.40
2017-10-13T03:08:31.603Z,5.55
2017-10-13T03:10:59.219Z,5.43
2017-10-13T03:13:26.915Z,5.37
2017-10-13T03:15:54.531Z,6.15
2017-10-13T03:18:22.169Z,6.70
2017-10-13T03:20:49.831Z,11.55
2017-10-13T03:23:17.458Z,8.63
2017-10-13T03:25:45.120Z,4.70
2017-10-13T03:28:13.550Z,7.70
2017-10-13T03:30:41.940Z,8.73
2017-10-13T03:33:09.590Z,6.05
2017-10-13T03:35:37.258Z,9.20
2017-10-13T03:38:06.347Z,12.05
2017-10-13T03:40:33.954Z,7.07
2017-10-13T03:43:01.581Z,5.37
2017-10-13T03:45:29.218Z,8.73
2017-10-13T03:47:57.597Z,5.45
2017-10-13T03:50:25.313Z,6.60
2017-10-13T03:52:52.986Z,7.37
2017-10-13T03:55:21.372Z,7.55
2017-10-13T03:57:49.022Z,4.97
2017-10-13T04:00:16.633Z,6.30
2017-10-13T04:02:45.087Z,7.00
2017-10-13T04:05:12.703Z,5.85
2017-10-13T04:07:40.330Z,5.28
2017-10-13T04:10:07.986Z,5.47
2017-10-13T04:12:35.674Z,9.35
2017-10-13T04:15:03.334Z,6.28
2017-10-13T04:17:30.958Z,6.72
2017-10-13T04:19:58.594Z,6.82
2017-10-13T04:22:26.328Z,3.37
2017-10-13T04:24:53.959Z,7.28
2017-10-13T04:27:21.618Z,5.28
2017-10-13T04:29:49.236Z,8.75
2017-10-13T04:32:16.869Z,8.20
2017-10-13T04:34:44.589Z,4.68
2017-10-13T04:37:12.202Z,6.22
2017-10-13T04:39:39.869Z,6.68
2017-10-13T04:42:07.528Z,6.97
2017-10-13T04:44:35.190Z,5.35
2017-10-13T04:47:03.703Z,8.32
2017-10-13T04:49:31.319Z,6.47
2017-10-13T04:51:58.982Z,7.97
2017-10-13T04:54:26.710Z,7.28
2017-10-13T04:56:55.118Z,6.87
2017-10-13T04:59:22.911Z,5.05
2017-10-13T05:01:51.365Z,5.10
2017-10-13T05:04:19.027Z,4.82
2017-10-13T05:06:47.422Z,4.85
2017-10-13T05:09:15.123Z,5.40
2017-10-13T05:11:43.581Z,7.70
2017-10-13T05:14:11.212Z,8.73
2017-10-13T05:16:38.868Z,8.77
2017-10-13T05:19:06.502Z,7.15
2017-10-13T05:21:34.109Z,8.88
2017-10-13T05:24:01.755Z,8.98
2017-10-13T05:26:29.386Z,11.12
2017-10-13T05:28:57.922Z,5.50
2017-10-13T05:31:25.632Z,4.95
2017-10-13T05:33:53.267Z,3.85
2017-10-13T05:36:20.928Z,7.57
2017-10-13T05:38:48.558Z,6.60
2017-10-13T05:41:16.246Z,12.60
2017-10-13T05:43:43.867Z,9.55
2017-10-13T05:46:11.495Z,7.45
2017-10-13T05:48:39.158Z,7.00
2017-10-13T05:51:06.890Z,5.95
2017-10-13T05:53:34.558Z,6.40
2017-10-13T05:56:02.177Z,8.93
2017-10-13T05:58:29.808Z,6.93
2017-10-13T06:00:57.459Z,7.95
2017-10-13T06:03:25.886Z,6.80
2017-10-13T06:05:53.543Z,6.53
2017-10-13T06:08:21.163Z,7.18
2017-10-13T06:10:48.847Z,7.47
2017-10-13T06:13:16.506Z,13.93
2017-10-13T06:15:45.191Z,6.82
2017-10-13T06:18:12.895Z,6.32
2017-10-13T06:20:40.514Z,6.15
2017-10-13T06:23:08.139Z,8.70
2017-10-13T06:25:35.830Z,5.00
2017-10-13T06:28:03.437Z,5.90
2017-10-13T06:30:31.146Z,5.20
2017-10-13T06:32:58.776Z,7.18
2017-10-13T06:35:26.406Z,9.48
2017-10-13T06:37:54.051Z,6.78
2017-10-13T06:40:21.679Z,10.38
2017-10-13T06:42:49.346Z,11.10
2017-10-13T06:45:17.053Z,13.10
2017-10-13T06:47:45.431Z,9.10
2017-10-13T06:50:13.070Z,8.88
2017-10-13T06:52:40.686Z,5.22
2017-10-13T06:55:08.338Z,7.28
2017-10-13T06:57:36.750Z,11.77
2017-10-13T07:00:04.464Z,10.52
2017-10-13T07:02:32.097Z,7.10
2017-10-13T07:04:59.719Z,9.77
2017-10-13T07:07:27.370Z,8.18
2017-10-13T07:09:55.075Z,9.90
2017-10-13T07:12:22.762Z,10.75
2017-10-13T07:14:50.414Z,6.07
2017-10-13T07:17:18.033Z,6.40
2017-10-13T07:19:45.921Z,9.00
2017-10-13T07:22:13.557Z,9.02
2017-10-13T07:24:41.175Z,8.18
2017-10-13T07:27:08.835Z,10.82
2017-10-13T07:29:36.544Z,7.28
2017-10-13T07:32:04.196Z,7.93
2017-10-13T07:34:31.828Z,7.22
2017-10-13T07:37:00.219Z,6.47
2017-10-13T07:39:27.869Z,7.80
2017-10-13T07:41:55.495Z,12.40
2017-10-13T07:44:23.168Z,8.05
2017-10-13T07:46:50.786Z,9.18
2017-10-13T07:49:19.561Z,9.85
2017-10-13T07:51:47.259Z,7.70
2017-10-13T07:54:14.903Z,8.27
2017-10-13T07:56:42.560Z,9.25
2017-10-13T07:59:10.183Z,12.25
2017-10-13T08:01:37.803Z,13.45
2017-10-13T08:04:05.445Z,6.70
2017-10-13T08:06:33.074Z,10.63
2017-10-13T08:09:00.741Z,9.23
2017-10-13T08:11:28.380Z,11.90
2017-10-13T08:13:56.299Z,9.75
2017-10-13T08:16:24.723Z,7.00
2017-10-13T08:18:52.335Z,7.10
2017-10-13T08:21:19.996Z,9.65
2017-10-13T08:23:47.648Z,11.27
2017-10-13T08:26:15.352Z,5.80
2017-10-13T08:28:43.772Z,9.68
2017-10-13T08:31:11.387Z,8.38
2017-10-13T08:33:39.109Z,10.95
2017-10-13T08:36:07.014Z,7.78
2017-10-13T08:38:34.645Z,8.23
2017-10-13T08:41:02.310Z,6.40
2017-10-13T08:43:29.940Z,6.35
2017-10-13T08:45:57.608Z,11.23
2017-10-13T08:48:25.321Z,9.60
2017-10-13T08:50:52.953Z,11.88
2017-10-13T08:53:20.598Z,7.43
2017-10-13T08:55:48.992Z,8.27
2017-10-13T08:58:17.390Z,6.67
2017-10-13T09:00:45.009Z,9.10
2017-10-13T09:03:12.646Z,11.93
2017-10-13T09:05:41.056Z,8.43
2017-10-13T09:08:08.658Z,6.50
2017-10-13T09:10:36.372Z,7.10
2017-10-13T09:13:03.972Z,8.07
2017-10-13T09:15:31.584Z,4.70
2017-10-13T09:17:59.199Z,6.90
2017-10-13T09:20:26.930Z,8.63
2017-10-13T09:22:56.390Z,7.20
2017-10-13T09:25:23.994Z,8.47
2017-10-13T09:27:51.613Z,7.90
2017-10-13T09:30:19.254Z,7.90
2017-10-13T09:32:46.875Z,8.70
2017-10-13T09:35:14.513Z,8.67
2017-10-13T09:37:42.868Z,9.67
2017-10-13T09:40:10.459Z,9.70
2017-10-13T09:42:38.092Z,7.33
2017-10-13T09:45:05.806Z,7.47
2017-10-13T09:47:34.212Z,6.67
2017-10-13T09:50:01.813Z,6.63
2017-10-13T09:52:29.444Z,10.10
2017-10-13T09:54:57.071Z,5.97
2017-10-13T09:57:24.674Z,5.87
2017-10-13T09:59:52.303Z,5.50
2017-10-13T10:02:20.674Z,5.87
2017-10-13T10:04:49.039Z,6.13
2017-10-13T10:07:17.597Z,7.30
2017-10-13T10:09:46.011Z,8.43
2017-10-13T10:12:13.648Z,7.03
2017-10-13T10:14:41.246Z,8.73
2017-10-13T10:17:09.626Z,6.40
2017-10-13T10:19:38.049Z,7.30
2017-10-13T10:22:05.770Z,7.00
2017-10-13T10:24:33.398Z,5.87
2017-10-13T10:27:01.016Z,6.37
2017-10-13T10:29:28.634Z,10.87
2017-10-13T10:31:56.310Z,6.80
2017-10-13T10:34:24.674Z,8.53
2017-10-13T10:36:52.330Z,6.33
2017-10-13T10:39:20.690Z,7.70
2017-10-13T10:41:49.124Z,12.23
2017-10-13T10:44:16.770Z,8.83
2017-10-13T10:46:44.365Z,7.70
2017-10-13T10:49:12.015Z,11.90
2017-10-13T10:51:39.619Z,8.93
2017-10-13T10:54:07.211Z,12.80
2017-10-13T10:56:34.925Z,4.97
2017-10-13T10:59:03.298Z,11.93
2017-10-13T11:01:31.699Z,13.87
2017-10-13T11:03:59.307Z,5.43
2017-10-13T11:06:27.691Z,13.37
2017-10-13T11:08:55.375Z,8.23
2017-10-13T11:11:23.197Z,9.33
2017-10-13T11:13:50.854Z,9.85
2017-10-13T11:16:18.459Z,7.77
2017-10-13T11:18:46.910Z,11.27
2017-10-13T11:21:14.530Z,6.93
2017-10-13T11:23:42.164Z,9.25
2017-10-13T11:26:09.806Z,12.80
2017-10-13T11:28:37.403Z,8.33
2017-10-13T11:31:05.041Z,7.65
2017-10-13T11:33:32.725Z,5.33
2017-10-13T11:36:00.347Z,6.15
2017-10-13T11:38:28.747Z,9.13
2017-10-13T11:40:56.351Z,8.87
2017-10-13T11:43:23.989Z,6.65
2017-10-13T11:45:52.415Z,8.13
2017-10-13T11:48:20.039Z,7.40
2017-10-13T11:50:47.670Z,6.03
2017-10-13T11:53:16.206Z,7.83
2017-10-13T11:55:44.611Z,10.30
2017-10-13T11:58:12.234Z,8.10
2017-10-13T12:00:39.875Z,6.70
2017-10-13T12:03:07.538Z,8.50
2017-10-13T12:05:35.236Z,6.25
2017-10-13T12:08:03.653Z,5.75
2017-10-13T12:10:31.294Z,4.70
2017-10-13T12:12:58.909Z,6.78
2017-10-13T12:15:26.561Z,8.55
2017-10-13T12:17:54.963Z,7.70
2017-10-13T12:20:22.598Z,5.37
2017-10-13T12:22:50.258Z,5.65
2017-10-13T12:25:17.882Z,6.80
2017-10-13T12:27:45.563Z,7.55
2017-10-13T12:30:13.178Z,5.50
2017-10-13T12:32:41.542Z,6.97
2017-10-13T12:35:09.194Z,10.18
2017-10-13T12:37:36.822Z,10.32
2017-10-13T12:40:05.257Z,7.70
2017-10-13T12:42:32.954Z,5.45
2017-10-13T12:45:00.580Z,4.82
2017-10-13T12:47:28.992Z,8.20
2017-10-13T12:49:56.632Z,6.93
2017-10-13T12:52:24.288Z,5.55
2017-10-13T12:54:51.910Z,6.22
2017-10-13T12:57:19.558Z,5.25
2017-10-13T12:59:47.230Z,4.22
2017-10-13T13:02:14.830Z,8.60
2017-10-13T13:04:42.494Z,4.70
2017-10-13T13:07:10.875Z,3.93
2017-10-13T13:09:38.490Z,4.90
2017-10-13T13:12:06.178Z,7.47
2017-10-13T13:14:33.783Z,5.13
2017-10-13T13:17:01.423Z,4.27
2017-10-13T13:19:29.023Z,5.87
2017-10-13T13:21:56.726Z,4.70
2017-10-13T13:24:25.131Z,5.30
2017-10-13T13:26:52.774Z,5.07
2017-10-13T13:29:20.426Z,6.20
2017-10-13T13:31:48.473Z,3.70
2017-10-13T13:34:16.130Z,5.00
2017-10-13T13:36:43.755Z,5.77
2017-10-13T13:39:11.359Z,5.07
2017-10-13T13:41:38.988Z,4.27
2017-10-13T13:44:06.700Z,5.57
2017-10-13T13:46:34.693Z,3.40
2017-10-13T13:49:02.329Z,3.80
2017-10-13T13:51:29.955Z,6.20
2017-10-13T13:53:57.593Z,4.20
2017-10-13T13:56:25.262Z,4.17
2017-10-13T13:58:52.938Z,5.20
2017-10-13T14:01:20.601Z,5.20
2017-10-13T14:03:49.012Z,4.82
2017-10-13T14:06:16.647Z,5.10
2017-10-13T14:08:44.252Z,3.87
2017-10-13T14:11:12.641Z,4.95
2017-10-13T14:13:40.291Z,4.55
2017-10-13T14:16:07.906Z,5.83
2017-10-13T14:18:35.594Z,4.05
2017-10-13T14:21:03.198Z,7.40
2017-10-13T14:23:31.585Z,7.07
2017-10-13T14:25:59.243Z,4.82
2017-10-13T14:28:26.876Z,3.65
2017-10-13T14:30:54.530Z,6.18
2017-10-13T14:33:22.162Z,6.32
2017-10-13T14:35:49.783Z,9.13
2017-10-13T14:38:18.215Z,3.65
2017-10-13T14:40:45.910Z,4.37
2017-10-13T14:43:13.566Z,4.05
2017-10-13T14:45:41.205Z,5.97
2017-10-13T14:48:08.871Z,3.90
2017-10-13T14:50:36.514Z,5.15
2017-10-13T14:53:04.147Z,4.85
2017-10-13T14:55:31.810Z,5.00
2017-10-13T14:57:59.430Z,3.00
2017-10-13T15:00:27.829Z,6.12
2017-10-13T15:02:55.490Z,3.67
2017-10-13T15:05:23.111Z,3.22
2017-10-13T15:07:50.762Z,6.28
2017-10-13T15:10:18.905Z,5.55
2017-10-13T15:12:46.585Z,3.33
2017-10-13T15:15:14.225Z,6.75
2017-10-13T15:17:41.866Z,3.80
2017-10-13T15:20:09.512Z,4.57
2017-10-13T15:22:37.343Z,4.70
2017-10-13T15:28:17.465Z,3.70
2017-10-13T15:30:51.557Z,3.55
2017-10-13T15:33:24.932Z,4.15
2017-10-13T15:35:58.374Z,6.75
2017-10-13T15:38:31.662Z,5.65
2017-10-13T15:41:05.137Z,5.03
2017-10-13T15:43:39.061Z,6.40
2017-10-13T15:46:12.315Z,4.62
2017-10-13T15:48:39.942Z,3.78
2017-10-13T15:51:13.325Z,4.53
2017-10-13T15:53:40.945Z,6.78
2017-10-13T15:56:08.566Z,5.10
2017-10-13T15:58:36.270Z,8.07
2017-10-13T16:01:03.893Z,4.00
2017-10-13T16:03:31.548Z,6.43
2017-10-13T16:05:59.166Z,5.85
2017-10-13T16:08:27.555Z,7.03
2017-10-13T16:10:55.233Z,8.07
2017-10-13T16:13:22.959Z,7.75
2017-10-13T16:15:50.623Z,7.93
2017-10-13T16:18:18.252Z,6.95
2017-10-13T16:20:46.123Z,7.05
2017-10-13T16:23:13.783Z,6.05
2017-10-13T16:25:41.408Z,6.12
2017-10-13T16:28:09.062Z,5.37
2017-10-13T16:30:36.716Z,6.95
2017-10-13T16:33:04.348Z,5.40
2017-10-13T16:35:31.989Z,7.10
2017-10-13T16:37:59.602Z,7.12
2017-10-13T16:40:28.029Z,11.70
2017-10-13T16:42:55.775Z,5.60
2017-10-13T16:45:23.407Z,6.20
2017-10-13T16:47:51.063Z,6.53
2017-10-13T16:50:18.687Z,7.20
2017-10-13T16:52:46.354Z,8.38
2017-10-13T16:55:13.967Z,8.90
2017-10-13T16:57:41.597Z,9.68
2017-10-13T17:00:09.870Z,9.52
2017-10-13T17:02:37.489Z,8.25
2017-10-13T17:05:06.101Z,8.95
2017-10-13T17:07:33.727Z,8.88
2017-10-13T17:10:01.362Z,7.90
2017-10-13T17:12:29.767Z,9.18
2017-10-13T17:14:57.405Z,8.30
2017-10-13T17:17:25.121Z,8.75
2017-10-13T17:19:52.778Z,8.68
2017-10-13T17:22:20.471Z,10.10
2017-10-13T17:24:48.135Z,8.52
2017-10-13T17:27:15.790Z,6.35
2017-10-13T17:29:43.454Z,9.45
2017-10-13T17:32:15.232Z,8.00
2017-10-13T17:34:43.100Z,7.68
2017-10-13T17:37:10.719Z,7.30
2017-10-13T17:39:38.351Z,8.75
2017-10-13T17:42:06.187Z,8.57
2017-10-13T17:44:35.392Z,9.00
2017-10-13T17:47:03.042Z,9.35
2017-10-13T17:49:30.687Z,10.02
2017-10-13T17:51:58.318Z,10.32
2017-10-13T17:54:26.877Z,11.85
2017-10-13T17:56:55.372Z,10.75
2017-10-13T17:59:23.030Z,9.15
2017-10-13T18:01:50.653Z,8.25
2017-10-13T18:04:18.373Z,9.77
2017-10-13T18:06:46.242Z,7.95
2017-10-13T18:09:13.890Z,8.20
2017-10-13T18:11:41.568Z,7.47
2017-10-13T18:14:09.185Z,8.63
2017-10-13T18:16:36.989Z,9.98
2017-10-13T18:19:04.868Z,11.27
2017-10-13T18:21:32.558Z,11.75
2017-10-13T18:24:00.721Z,12.10
2017-10-13T18:26:28.505Z,9.02
2017-10-13T18:28:56.774Z,8.25
2017-10-13T18:31:24.415Z,11.07
2017-10-13T18:33:53.003Z,10.73
2017-10-13T18:36:20.999Z,9.05
2017-10-13T18:38:48.698Z,8.07
2017-10-13T18:41:20.260Z,8.48
2017-10-13T18:43:48.655Z,14.18
2017-10-13T18:46:16.319Z,8.48
2017-10-13T18:48:44.027Z,11.43
2017-10-13T18:51:11.653Z,11.95
2017-10-13T18:53:40.089Z,11.00
2017-10-13T18:56:09.008Z,10.75
2017-10-13T18:58:37.406Z,9.18
2017-10-13T19:01:05.065Z,9.52
2017-10-13T19:03:32.731Z,9.05
2017-10-13T19:06:00.444Z,11.68
2017-10-13T19:08:28.071Z,9.00
2017-10-13T19:10:55.819Z,9.00
2017-10-13T19:13:23.617Z,10.70
2017-10-13T19:15:53.846Z,8.23
2017-10-13T19:18:22.625Z,9.23
2017-10-13T19:20:50.283Z,9.82
2017-10-13T19:23:18.695Z,10.95
2017-10-13T19:25:46.341Z,10.07
2017-10-13T19:28:13.967Z,9.45
2017-10-13T19:30:41.620Z,9.65
2017-10-13T19:33:09.261Z,8.45
2017-10-13T19:35:36.970Z,9.23
2017-10-13T19:38:05.394Z,9.10
2017-10-13T19:40:33.018Z,8.65
2017-10-13T19:43:00.699Z,8.68
2017-10-13T19:45:28.336Z,16.60
2017-10-13T19:47:56.319Z,13.80
2017-10-13T19:50:23.986Z,14.90
2017-10-13T19:52:52.512Z,12.00
2017-10-13T19:55:20.993Z,11.40
2017-10-13T19:57:48.761Z,10.77
2017-10-13T20:00:16.406Z,12.35
2017-10-13T20:02:44.055Z,10.10
2017-10-13T20:05:11.684Z,10.60
2017-10-13T20:07:39.358Z,11.27
2017-10-13T20:10:07.804Z,10.73
2017-10-13T20:12:36.397Z,11.00
2017-10-13T20:15:04.053Z,8.75
2017-10-13T20:17:31.816Z,9.63
2017-10-13T20:19:59.563Z,11.00
2017-10-13T20:22:27.328Z,14.13
2017-10-13T20:24:55.011Z,9.13
2017-10-13T20:27:22.719Z,11.38
2017-10-13T20:29:50.358Z,8.43
2017-10-13T20:32:18.038Z,14.63
2017-10-13T20:34:45.859Z,10.02
2017-10-13T20:37:13.487Z,10.93
2017-10-13T20:39:41.138Z,11.05
2017-10-13T20:42:08.866Z,9.95
2017-10-13T20:44:37.344Z,10.93
2017-10-13T20:47:04.974Z,9.52
2017-10-13T20:49:32.652Z,9.50
2017-10-13T20:52:00.301Z,11.23
2017-10-13T20:54:27.948Z,11.55
2017-10-13T20:56:55.824Z,10.77
2017-10-13T20:59:23.451Z,9.68
2017-10-13T21:01:51.115Z,11.57
2017-10-13T21:04:18.767Z,11.18
2017-10-13T21:06:46.848Z,11.50
2017-10-13T21:09:14.518Z,14.27
2017-10-13T21:11:42.153Z,11.98
2017-10-13T21:14:10.576Z,12.70
2017-10-13T21:16:38.222Z,12.23
2017-10-13T21:19:05.888Z,11.88
2017-10-13T21:21:33.628Z,12.10
2017-10-13T21:24:01.299Z,12.85
2017-10-13T21:26:28.922Z,13.45
2017-10-13T21:28:56.687Z,12.57
2017-10-13T21:31:24.318Z,13.93
2017-10-13T21:33:51.984Z,12.25
2017-10-13T21:36:19.620Z,12.60
2017-10-13T21:38:57.287Z,15.13
2017-10-13T21:41:26.381Z,14.18
2017-10-13T21:43:54.011Z,14.05
2017-10-13T21:46:21.670Z,14.50
2017-10-13T21:48:49.295Z,16.27
2017-10-13T21:51:17.026Z,15.90
2017-10-13T21:53:44.655Z,15.45
2017-10-13T21:56:12.279Z,16.87
2017-10-13T21:58:40.709Z,18.10
2017-10-13T22:01:08.334Z,16.67
2017-10-13T22:03:36.208Z,16.27
2017-10-13T22:06:03.858Z,13.90
2017-10-13T22:08:31.487Z,13.70
2017-10-13T22:10:59.162Z,16.27
2017-10-13T22:13:26.904Z,15.38
2017-10-13T22:15:54.587Z,16.48
2017-10-13T22:18:22.995Z,15.70
2017-10-13T22:20:50.609Z,13.00
2017-10-13T22:23:18.265Z,15.35
2017-10-13T22:25:45.998Z,14.18
2017-10-13T22:28:13.951Z,10.77
2017-10-13T22:30:42.348Z,11.20
2017-10-13T22:33:09.979Z,11.75
2017-10-13T22:35:37.638Z,13.07
2017-10-13T22:38:05.435Z,13.00
2017-10-13T22:40:33.094Z,12.02
2017-10-13T22:43:01.499Z,12.60
2017-10-13T22:45:29.129Z,13.57
2017-10-13T22:47:56.898Z,13.20
2017-10-13T22:50:24.526Z,12.80
2017-10-13T22:52:52.182Z,12.20
2017-10-13T22:55:19.808Z,14.85
2017-10-13T22:57:48.212Z,12.45
2017-10-13T23:00:15.890Z,15.80
2017-10-13T23:02:43.530Z,11.75
2017-10-13T23:05:11.196Z,11.35
2017-10-13T23:07:39.591Z,12.23
2017-10-13T23:10:07.285Z,15.38
2017-10-13T23:12:34.944Z,13.43
2017-10-13T23:15:02.570Z,13.68
2017-10-13T23:17:30.249Z,14.23
2017-10-13T23:19:57.870Z,13.40
2017-10-13T23:22:25.492Z,15.20
2017-10-13T23:24:53.147Z,14.13
2017-10-13T23:27:20.775Z,13.05
2017-10-13T23:29:48.444Z,15.25
2017-10-13T23:32:16.214Z,14.50
2017-10-13T23:34:43.842Z,13.80
2017-10-13T23:37:11.500Z,12.85
2017-10-13T23:39:39.141Z,14.10
2017-10-13T23:42:06.931Z,16.95
2017-10-13T23:44:35.404Z,15.35
2017-10-13T23:47:03.049Z,15.13
2017-10-13T23:49:30.708Z,17.35
2017-10-13T23:51:58.338Z,17.83
2017-10-13T23:54:26.932Z,14.25
2017-10-13T23:56:54.557Z,15.55
2017-10-13T23:59:22.184Z,15.40
